X  Fechar Metar - Info de Aeroporto        LGTS Thessaloniki Macedonia International
Temperatura
14°C Temperatura
12°C Ptº Orvalho
88% Humidade



Vento
7 MPH
11 KM/H
3 M/S
6 NÓS



290°
ONO
Condições Atuais

Mostly Sunny Principalmente ensolarado
Pressão 1014 (hPa) - 29.94 (inHg)
Visibilidade 6 (milha) - 10 (km)
Aeroporto
Código-Aeropoto LGTS

Localização: Thessaloniki Macedonia International
Distância: 85 (mi)

Metar:
METAR LGTS 031120Z 29006KT 9999 FEW020 14/12 Q1014 NOSIG

Hora: 03-03-2024 13:20 EET